Flight Track Log - Related Links

Times and Time Zones

All times are in EDT time to prevent confusion due to time zone crossing. See the USC105 flight status page for this flight to view local times or setup timezone preferences in your user account.

Time Position Orientation Groundspeed Altitude Reporting Facility
EDT Latitude Longitude Course Direction KTS MPH feet Rate Location/Type
Tue 12:18:04 AM 42.2394 -83.5928 263° West 129 148 1,900  Level Cleveland Center
Tue 12:19:05 AM 42.2381 -83.6458 268° West 147 169 2,900 992 Climbing Cleveland Center
Tue 12:20:05 AM 42.2344 -83.7019 265° West 150 173 3,900 233 Climbing Cleveland Center
Tue 12:22:00 AM 42.2121 -83.8389 267° West  Level FlightAware Approximate
Tue 12:23:48 AM 42.2253 -83.9669 266° West 247 284 4,000  Level Chicago Center
Tue 12:24:49 AM 42.2219 -84.0450 267° West 214 246 4,000  Level Chicago Center
Tue 12:25:49 AM 42.2172 -84.1233 265° West 212 244 4,000  Level Chicago Center
Tue 12:26:50 AM 42.2125 -84.2036 265° West 214 246 4,000  Level Chicago Center
Tue 12:27:51 AM 42.2089 -84.2839 267° West 214 246 4,000  Level Chicago Center
Tue 12:28:51 AM 42.2036 -84.3642 265° West 215 247 4,000  Level Chicago Center
Tue 12:29:00 AM 42.1896 -84.3485 266° West  Level FlightAware Approximate
Tue 12:29:52 AM 42.1992 -84.4431 266° West 214 246 4,000  Level Chicago Center
Tue 12:30:52 AM 42.1931 -84.5233 264° West 211 243 4,000  Level Chicago Center
Tue 12:31:53 AM 42.1886 -84.5975 265° West 209 241 4,000  Level Chicago Center
Tue 12:32:53 AM 42.1842 -84.6764 266° West 210 242 4,000  Level Chicago Center
Tue 12:33:54 AM 42.1789 -84.7706 266° West 211 243 4,000  Level Chicago Center
Tue 12:34:55 AM 42.1747 -84.8500 266° West 212 244 4,000  Level Chicago Center
Tue 12:35:55 AM 42.1683 -84.9297 264° West 215 247 4,000  Level Chicago Center
Tue 12:36:56 AM 42.1631 -85.0089 265° West 214 246 4,000  Level Chicago Center
Tue 12:37:56 AM 42.1586 -85.0875 266° West 213 245 4,000  Level Chicago Center
Tue 12:38:57 AM 42.1525 -85.1653 264° West 211 243 4,000  Level Chicago Center
Tue 12:39:57 AM 42.1478 -85.2433 265° West 212 244 4,000  Level Chicago Center
Tue 12:40:58 AM 42.1428 -85.3219 265° West 212 244 4,000  Level Chicago Center
Tue 12:41:58 AM 42.1372 -85.4008 265° West 212 244 4,000  Level Chicago Center
Tue 12:42:59 AM 42.1322 -85.4806 265° West 214 246 4,000  Level Chicago Center
Tue 12:43:59 AM 42.1269 -85.5586 265° West 213 245 4,000  Level Chicago Center
Tue 12:45:00 AM 42.1211 -85.6381 264° West 213 245 4,000  Level Chicago Center
Tue 12:46:00 AM 42.1156 -85.7186 265° West 216 249 4,000  Level Chicago Center
Tue 12:47:01 AM 42.1094 -85.7981 264° West 215 247 4,000  Level Chicago Center
Tue 12:48:01 AM 42.1036 -85.8764 264° West 213 245 4,000  Level Chicago Center
Tue 12:49:02 AM 42.0983 -85.9561 265° West 214 246 4,000  Level Chicago Center
Tue 12:50:02 AM 42.0925 -86.0350 264° West 214 246 4,000  Level Chicago Center
Tue 12:51:03 AM 42.0867 -86.1144 264° West 213 245 4,000  Level Chicago Center
Tue 12:52:03 AM 42.0800 -86.2089 265° West 213 245 4,000  Level Chicago Center
Tue 12:53:04 AM 42.0739 -86.2869 264° West 211 243 4,000 149 Level Chicago Center
Tue 12:54:04 AM 42.0675 -86.3650 264° West 211 243 4,300 496 Climbing Chicago Center
Tue 12:55:05 AM 42.0631 -86.4333 265° West 192 221 5,000 595 Climbing Chicago Center
Tue 12:56:05 AM 42.0561 -86.4978 262° West 178 205 5,500 500 Climbing Chicago Center
Tue 12:57:05 AM 42.0519 -86.5633 265° West 177 204 6,000 248 Climbing Chicago Center
Tue 12:58:06 AM 42.0458 -86.6347 263° West 188 216 6,000  Level Chicago Center
Tue 12:59:06 AM 42.0408 -86.7100 265° West 198 228 6,000  Level Chicago Center
Tue 01:00:09 AM 42.0347 -86.7942 264° West 204 235 6,000  Level Chicago Center
Tue 01:01:09 AM 42.0294 -86.8706 265° West 206 237 6,000  Level Chicago Center
Tue 01:02:09 AM 42.0228 -86.9475 263° West 208 239 6,000  Level Chicago Center
Tue 01:03:10 AM 42.0150 -87.0242 262° West 208 239 6,000  Level Chicago Center
Tue 01:04:10 AM 41.9972 -87.0994 252° West 213 245 6,000  Level Chicago Center
Tue 01:05:10 AM 41.9794 -87.1756 253° West 214 246 6,000  Level Chicago Center
Tue 01:06:11 AM 41.9625 -87.2511 253° West 213 245 6,000  Level Chicago Center
Tue 01:07:11 AM 41.9456 -87.3264 253° West 212 244 6,000  Level Chicago Center
Tue 01:08:11 AM 41.9278 -87.4017 252° West 214 246 6,000  Level Chicago Center
Tue 01:09:12 AM 41.9178 -87.4767 260° West 210 242 6,000  Level Chicago Center
Tue 01:10:12 AM 41.9192 -87.5511 271° West 204 235 6,000  Level Chicago Center
Tue 01:11:12 AM 41.9169 -87.6264 268° West 204 235 6,000  Level Chicago Center
Tue 01:12:13 AM 41.9147 -87.7033 268° West 208 239 6,000  Level Chicago Center
Tue 01:13:13 AM 41.9128 -87.7792 268° West 206 237 6,000  Level Chicago Center
Tue 01:14:13 AM 41.9094 -87.8536 267° West 203 234 6,000 -235 Level Chicago Center
Tue 01:14:55 AM 41.9167 -87.9167 279° West 214 246 5,600 -824 Descending Chicago TRACON
Tue 01:15:55 AM 41.9000 -88.0000 255° West 226 260 4,600 -1,100 Descending Chicago TRACON
Tue 01:16:55 AM 41.9000 -88.0833 270° West 226 260 3,400 -1,200 Descending Chicago TRACON
Tue 01:17:55 AM 41.8833 -88.1667 255° West 219 252 2,200 -789 Descending Chicago TRACON
Tue 01:18:49 AM 41.8667 -88.2167 246° West 184 212 1,900 -526 Descending Chicago TRACON
Tue 01:19:49 AM 41.8833 -88.2667 294° West 140 161 1,200 -700 Descending Chicago TRACON
Tue 01:22:00 AM 41.9000 -88.2333 270° West  Level FlightAware Approximate

Login

Don't have an account? Register now (free) for customized features, flight alerts, and more!